Terminal Aerodrome Forecast
Issued by NWS Shreveport, LA

Home | Current Version | Previous Version | Text Only | Print | Product List | Glossary On
Versions: 1 2 3 4 5 6 7 8 9 10 11 12 13 14 15 16 17 18 19 20
000
FTUS44 KSHV 230800 CCA
TAFMLU
TAF COR
KMLU 230827Z 2308/2406 00000KT 5SM BR SKC
      TEMPO 2308/2312 1SM BR BKN006
     FM231200 VRB03KT 6SM BR BKN012
     FM231500 26006KT P6SM FEW015
     FM240000 VRB03KT P6SM SKC=

USA.gov is the U.S. government's official web portal to all federal, state and local government web resources and services.